sensor_id;sensor_type;location;lat;lon;timestamp;pressure;altitude;pressure_sealevel;temperature;humidity
43480;BME280;29067;35.492;-97.520;2023-03-14T00:01:26;98067.24;;;3.49;30.32
43480;BME280;29067;35.492;-97.520;2023-03-14T00:03:54;98061.37;;;3.61;30.44
43480;BME280;29067;35.492;-97.520;2023-03-14T00:06:22;98061.42;;;2.92;30.41
43480;BME280;29067;35.492;-97.520;2023-03-14T00:08:50;98057.83;;;4.33;29.53
43480;BME280;29067;35.492;-97.520;2023-03-14T00:11:20;98060.29;;;3.45;30.07
43480;BME280;29067;35.492;-97.520;2023-03-14T00:13:49;98064.57;;;3.60;30.60
43480;BME280;29067;35.492;-97.520;2023-03-14T00:16:18;98062.29;;;4.81;29.57
43480;BME280;29067;35.492;-97.520;2023-03-14T00:18:46;98060.82;;;3.27;30.42
43480;BME280;29067;35.492;-97.520;2023-03-14T00:21:14;98058.54;;;3.85;29.77
43480;BME280;29067;35.492;-97.520;2023-03-14T00:23:43;98063.10;;;3.56;29.96
43480;BME280;29067;35.492;-97.520;2023-03-14T00:26:13;98064.30;;;4.42;29.32
43480;BME280;29067;35.492;-97.520;2023-03-14T00:28:43;98070.19;;;3.76;29.81
43480;BME280;29067;35.492;-97.520;2023-03-14T00:31:12;98064.15;;;4.54;29.38
43480;BME280;29067;35.492;-97.520;2023-03-14T00:33:41;98068.93;;;2.72;30.07
43480;BME280;29067;35.492;-97.520;2023-03-14T00:36:13;98076.01;;;2.13;30.90
43480;BME280;29067;35.492;-97.520;2023-03-14T00:38:43;98079.50;;;4.22;29.54
43480;BME280;29067;35.492;-97.520;2023-03-14T00:41:13;98077.94;;;5.28;29.68
43480;BME280;29067;35.492;-97.520;2023-03-14T00:43:47;98082.35;;;4.64;29.87
43480;BME280;29067;35.492;-97.520;2023-03-14T00:46:16;98083.58;;;5.23;29.77
43480;BME280;29067;35.492;-97.520;2023-03-14T00:48:45;98086.08;;;4.03;29.77
43480;BME280;29067;35.492;-97.520;2023-03-14T00:51:14;98074.85;;;5.75;28.77
43480;BME280;29067;35.492;-97.520;2023-03-14T00:53:43;98074.49;;;4.21;29.20
43480;BME280;29067;35.492;-97.520;2023-03-14T00:56:12;98081.73;;;4.45;29.86
43480;BME280;29067;35.492;-97.520;2023-03-14T00:58:41;98076.13;;;5.83;28.87
43480;BME280;29067;35.492;-97.520;2023-03-14T01:01:12;98077.74;;;5.47;28.27
43480;BME280;29067;35.492;-97.520;2023-03-14T01:03:41;98094.46;;;3.51;30.63
43480;BME280;29067;35.492;-97.520;2023-03-14T01:06:12;98092.05;;;4.57;28.99
43480;BME280;29067;35.492;-97.520;2023-03-14T01:08:41;98097.40;;;3.07;30.30
43480;BME280;29067;35.492;-97.520;2023-03-14T01:11:10;98106.64;;;2.94;30.97
43480;BME280;29067;35.492;-97.520;2023-03-14T01:13:40;98112.12;;;3.74;30.51
43480;BME280;29067;35.492;-97.520;2023-03-14T01:16:11;98112.56;;;3.49;30.83
43480;BME280;29067;35.492;-97.520;2023-03-14T01:18:42;98113.84;;;3.56;29.89
43480;BME280;29067;35.492;-97.520;2023-03-14T01:21:12;98110.15;;;5.27;29.54
43480;BME280;29067;35.492;-97.520;2023-03-14T01:23:41;98110.36;;;5.35;28.86
43480;BME280;29067;35.492;-97.520;2023-03-14T01:26:10;98109.56;;;5.34;28.90
43480;BME280;29067;35.492;-97.520;2023-03-14T01:28:38;98118.30;;;5.52;28.65
43480;BME280;29067;35.492;-97.520;2023-03-14T01:31:08;98112.48;;;6.03;28.46
43480;BME280;29067;35.492;-97.520;2023-03-14T01:33:37;98106.83;;;6.07;27.84
43480;BME280;29067;35.492;-97.520;2023-03-14T01:36:07;98118.33;;;5.06;28.46
43480;BME280;29067;35.492;-97.520;2023-03-14T01:38:37;98116.04;;;7.18;28.19
43480;BME280;29067;35.492;-97.520;2023-03-14T01:41:07;98119.43;;;6.37;28.18
43480;BME280;29067;35.492;-97.520;2023-03-14T01:43:36;98122.53;;;4.09;29.30
43480;BME280;29067;35.492;-97.520;2023-03-14T01:46:21;98123.26;;;4.38;28.80
43480;BME280;29067;35.492;-97.520;2023-03-14T01:49:00;98137.68;;;4.45;29.59
43480;BME280;29067;35.492;-97.520;2023-03-14T01:51:41;98143.20;;;3.72;29.71
43480;BME280;29067;35.492;-97.520;2023-03-14T01:54:16;98143.10;;;4.66;29.68
43480;BME280;29067;35.492;-97.520;2023-03-14T01:57:01;98137.77;;;6.34;28.33
43480;BME280;29067;35.492;-97.520;2023-03-14T01:59:32;98137.71;;;6.31;28.12
43480;BME280;29067;35.492;-97.520;2023-03-14T02:02:00;98139.97;;;6.73;28.27
43480;BME280;29067;35.492;-97.520;2023-03-14T02:04:33;98134.07;;;6.19;27.90
43480;BME280;29067;35.492;-97.520;2023-03-14T02:07:10;98133.82;;;5.10;27.95
43480;BME280;29067;35.492;-97.520;2023-03-14T02:09:40;98129.18;;;5.95;27.50
43480;BME280;29067;35.492;-97.520;2023-03-14T02:12:09;98129.92;;;4.77;28.36
43480;BME280;29067;35.492;-97.520;2023-03-14T02:14:39;98126.76;;;5.99;27.69
43480;BME280;29067;35.492;-97.520;2023-03-14T02:17:07;98131.65;;;5.40;28.10
43480;BME280;29067;35.492;-97.520;2023-03-14T02:20:03;98141.82;;;4.44;29.42
43480;BME280;29067;35.492;-97.520;2023-03-14T02:20:18;98142.83;;;5.37;28.98
43480;BME280;29067;35.492;-97.520;2023-03-14T02:22:53;98143.44;;;5.02;28.81
43480;BME280;29067;35.492;-97.520;2023-03-14T02:25:25;98141.60;;;4.72;29.40
43480;BME280;29067;35.492;-97.520;2023-03-14T02:27:56;98140.51;;;4.67;29.27
43480;BME280;29067;35.492;-97.520;2023-03-14T02:30:27;98142.32;;;4.88;29.09
43480;BME280;29067;35.492;-97.520;2023-03-14T02:32:59;98142.71;;;4.87;29.32
43480;BME280;29067;35.492;-97.520;2023-03-14T02:35:39;98151.77;;;4.51;29.24
43480;BME280;29067;35.492;-97.520;2023-03-14T02:38:15;98147.13;;;4.65;28.98
43480;BME280;29067;35.492;-97.520;2023-03-14T02:40:45;98136.87;;;4.95;29.11
43480;BME280;29067;35.492;-97.520;2023-03-14T02:43:12;98141.89;;;3.73;30.00
43480;BME280;29067;35.492;-97.520;2023-03-14T02:45:43;98149.43;;;5.13;29.25
43480;BME280;29067;35.492;-97.520;2023-03-14T02:48:16;98155.22;;;5.24;29.51
43480;BME280;29067;35.492;-97.520;2023-03-14T02:50:48;98155.33;;;5.19;29.18
43480;BME280;29067;35.492;-97.520;2023-03-14T02:53:19;98158.53;;;4.23;29.74
43480;BME280;29067;35.492;-97.520;2023-03-14T02:55:49;98157.03;;;3.94;29.97
43480;BME280;29067;35.492;-97.520;2023-03-14T02:58:18;98155.47;;;5.14;29.21
43480;BME280;29067;35.492;-97.520;2023-03-14T03:00:48;98160.92;;;4.80;29.51
43480;BME280;29067;35.492;-97.520;2023-03-14T03:03:16;98157.14;;;3.26;30.57
43480;BME280;29067;35.492;-97.520;2023-03-14T03:05:49;98153.96;;;3.96;30.58
43480;BME280;29067;35.492;-97.520;2023-03-14T03:08:17;98157.80;;;4.26;30.15
43480;BME280;29067;35.492;-97.520;2023-03-14T03:10:45;98153.89;;;3.99;29.62
43480;BME280;29067;35.492;-97.520;2023-03-14T03:13:13;98148.45;;;3.75;30.09
43480;BME280;29067;35.492;-97.520;2023-03-14T03:15:41;98148.98;;;5.03;29.57
43480;BME280;29067;35.492;-97.520;2023-03-14T03:18:09;98156.35;;;5.12;30.42
43480;BME280;29067;35.492;-97.520;2023-03-14T03:20:38;98162.06;;;6.16;29.26
43480;BME280;29067;35.492;-97.520;2023-03-14T03:23:06;98168.16;;;5.52;30.04
43480;BME280;29067;35.492;-97.520;2023-03-14T03:25:34;98165.32;;;5.17;28.94
43480;BME280;29067;35.492;-97.520;2023-03-14T03:28:02;98164.53;;;5.38;28.95
43480;BME280;29067;35.492;-97.520;2023-03-14T03:30:30;98166.10;;;4.34;30.25
43480;BME280;29067;35.492;-97.520;2023-03-14T03:32:58;98161.91;;;4.15;29.92
43480;BME280;29067;35.492;-97.520;2023-03-14T03:35:26;98156.13;;;4.79;29.76
43480;BME280;29067;35.492;-97.520;2023-03-14T03:37:54;98161.20;;;4.55;29.83
43480;BME280;29067;35.492;-97.520;2023-03-14T03:40:22;98170.13;;;4.20;30.94
43480;BME280;29067;35.492;-97.520;2023-03-14T03:42:50;98179.32;;;4.85;30.06
43480;BME280;29067;35.492;-97.520;2023-03-14T03:45:19;98181.43;;;4.87;30.20
43480;BME280;29067;35.492;-97.520;2023-03-14T03:47:47;98179.93;;;4.59;29.74
43480;BME280;29067;35.492;-97.520;2023-03-14T03:50:15;98183.25;;;4.44;30.55
43480;BME280;29067;35.492;-97.520;2023-03-14T03:52:43;98183.20;;;4.50;30.37
43480;BME280;29067;35.492;-97.520;2023-03-14T03:55:11;98182.32;;;4.67;30.25
43480;BME280;29067;35.492;-97.520;2023-03-14T03:57:39;98179.00;;;4.43;30.09
43480;BME280;29067;35.492;-97.520;2023-03-14T04:00:09;98178.04;;;4.43;30.17
43480;BME280;29067;35.492;-97.520;2023-03-14T04:02:38;98182.41;;;3.80;30.66
43480;BME280;29067;35.492;-97.520;2023-03-14T04:05:06;98180.70;;;4.56;30.77
43480;BME280;29067;35.492;-97.520;2023-03-14T04:07:35;98177.68;;;4.45;30.92
43480;BME280;29067;35.492;-97.520;2023-03-14T04:10:04;98180.16;;;4.06;31.05
43480;BME280;29067;35.492;-97.520;2023-03-14T04:12:32;98183.80;;;5.17;30.29
43480;BME280;29067;35.492;-97.520;2023-03-14T04:15:00;98189.36;;;4.78;30.20
43480;BME280;29067;35.492;-97.520;2023-03-14T04:17:28;98189.89;;;5.70;30.05
43480;BME280;29067;35.492;-97.520;2023-03-14T04:19:56;98190.20;;;6.49;29.42
43480;BME280;29067;35.492;-97.520;2023-03-14T04:22:24;98195.55;;;5.25;29.37
43480;BME280;29067;35.492;-97.520;2023-03-14T04:24:52;98190.96;;;6.98;29.00
43480;BME280;29067;35.492;-97.520;2023-03-14T04:27:20;98196.19;;;6.67;29.12
43480;BME280;29067;35.492;-97.520;2023-03-14T04:29:48;98197.27;;;6.84;29.59
43480;BME280;29067;35.492;-97.520;2023-03-14T04:32:16;98202.64;;;7.64;28.98
43480;BME280;29067;35.492;-97.520;2023-03-14T04:34:44;98200.16;;;7.37;28.84
43480;BME280;29067;35.492;-97.520;2023-03-14T04:37:12;98199.37;;;6.75;29.10
43480;BME280;29067;35.492;-97.520;2023-03-14T04:39:40;98205.86;;;6.19;29.32
43480;BME280;29067;35.492;-97.520;2023-03-14T04:42:08;98203.05;;;7.09;28.58
43480;BME280;29067;35.492;-97.520;2023-03-14T04:44:36;98211.91;;;6.42;29.32
43480;BME280;29067;35.492;-97.520;2023-03-14T04:47:04;98215.27;;;8.08;28.91
43480;BME280;29067;35.492;-97.520;2023-03-14T04:49:32;98215.20;;;6.73;29.63
43480;BME280;29067;35.492;-97.520;2023-03-14T04:52:00;98213.77;;;6.96;29.22
43480;BME280;29067;35.492;-97.520;2023-03-14T04:54:28;98216.49;;;6.15;29.49
43480;BME280;29067;35.492;-97.520;2023-03-14T04:56:56;98221.33;;;5.47;30.29
43480;BME280;29067;35.492;-97.520;2023-03-14T04:59:24;98220.69;;;5.90;29.78
43480;BME280;29067;35.492;-97.520;2023-03-14T05:01:52;98219.25;;;7.04;29.52
43480;BME280;29067;35.492;-97.520;2023-03-14T05:04:20;98224.33;;;3.81;31.32
43480;BME280;29067;35.492;-97.520;2023-03-14T05:06:48;98220.45;;;6.15;30.53
43480;BME280;29067;35.492;-97.520;2023-03-14T05:09:17;98226.65;;;5.61;30.96
43480;BME280;29067;35.492;-97.520;2023-03-14T05:11:45;98228.43;;;5.66;30.50
43480;BME280;29067;35.492;-97.520;2023-03-14T05:14:13;98225.79;;;5.41;30.64
43480;BME280;29067;35.492;-97.520;2023-03-14T05:16:41;98221.25;;;5.91;30.62
43480;BME280;29067;35.492;-97.520;2023-03-14T05:19:10;98218.48;;;7.07;30.41
43480;BME280;29067;35.492;-97.520;2023-03-14T05:21:38;98227.71;;;4.17;31.53
43480;BME280;29067;35.492;-97.520;2023-03-14T05:24:07;98221.92;;;5.83;30.60
43480;BME280;29067;35.492;-97.520;2023-03-14T05:26:35;98222.04;;;2.47;32.95
43480;BME280;29067;35.492;-97.520;2023-03-14T05:29:02;98222.39;;;5.20;31.75
43480;BME280;29067;35.492;-97.520;2023-03-14T05:31:30;98227.46;;;4.44;31.76
43480;BME280;29067;35.492;-97.520;2023-03-14T05:33:58;98225.69;;;3.98;32.79
43480;BME280;29067;35.492;-97.520;2023-03-14T05:36:26;98224.52;;;4.59;31.55
43480;BME280;29067;35.492;-97.520;2023-03-14T05:38:54;98225.84;;;5.45;31.18
43480;BME280;29067;35.492;-97.520;2023-03-14T05:41:22;98230.53;;;4.50;31.39
43480;BME280;29067;35.492;-97.520;2023-03-14T05:43:50;98223.80;;;4.17;30.64
43480;BME280;29067;35.492;-97.520;2023-03-14T05:46:18;98227.49;;;4.31;30.44
43480;BME280;29067;35.492;-97.520;2023-03-14T05:48:46;98229.37;;;5.46;30.23
43480;BME280;29067;35.492;-97.520;2023-03-14T05:51:14;98233.46;;;4.52;30.84
43480;BME280;29067;35.492;-97.520;2023-03-14T05:53:42;98238.30;;;3.87;31.65
43480;BME280;29067;35.492;-97.520;2023-03-14T05:56:10;98236.78;;;4.53;31.18
43480;BME280;29067;35.492;-97.520;2023-03-14T05:58:38;98239.08;;;3.28;32.10
43480;BME280;29067;35.492;-97.520;2023-03-14T06:01:07;98241.87;;;2.79;31.50
43480;BME280;29067;35.492;-97.520;2023-03-14T06:03:35;98242.20;;;3.05;30.89
43480;BME280;29067;35.492;-97.520;2023-03-14T06:06:04;98236.71;;;4.08;30.24
43480;BME280;29067;35.492;-97.520;2023-03-14T06:08:31;98236.18;;;3.47;29.12
43480;BME280;29067;35.492;-97.520;2023-03-14T06:11:02;98234.16;;;3.34;29.98
43480;BME280;29067;35.492;-97.520;2023-03-14T06:13:30;98234.56;;;3.48;29.39
43480;BME280;29067;35.492;-97.520;2023-03-14T06:15:58;98236.20;;;3.88;29.31
43480;BME280;29067;35.492;-97.520;2023-03-14T06:18:26;98231.99;;;3.82;29.57
43480;BME280;29067;35.492;-97.520;2023-03-14T06:20:54;98231.27;;;3.06;30.23
43480;BME280;29067;35.492;-97.520;2023-03-14T06:23:23;98229.22;;;3.05;30.19
43480;BME280;29067;35.492;-97.520;2023-03-14T06:25:52;98227.27;;;2.91;30.47
43480;BME280;29067;35.492;-97.520;2023-03-14T06:28:20;98224.71;;;3.13;30.32
43480;BME280;29067;35.492;-97.520;2023-03-14T06:30:48;98222.97;;;2.99;30.67
43480;BME280;29067;35.492;-97.520;2023-03-14T06:33:16;98221.37;;;2.95;30.66
43480;BME280;29067;35.492;-97.520;2023-03-14T06:35:44;98223.39;;;2.42;30.97
43480;BME280;29067;35.492;-97.520;2023-03-14T06:38:12;98228.36;;;2.40;31.25
43480;BME280;29067;35.492;-97.520;2023-03-14T06:40:40;98230.25;;;2.42;31.08
43480;BME280;29067;35.492;-97.520;2023-03-14T06:43:08;98226.48;;;1.68;31.41
43480;BME280;29067;35.492;-97.520;2023-03-14T06:45:36;98223.93;;;1.34;32.30
43480;BME280;29067;35.492;-97.520;2023-03-14T06:48:04;98215.44;;;1.50;32.47
43480;BME280;29067;35.492;-97.520;2023-03-14T06:50:33;98213.20;;;2.48;31.63
43480;BME280;29067;35.492;-97.520;2023-03-14T06:53:01;98209.91;;;2.41;32.15
43480;BME280;29067;35.492;-97.520;2023-03-14T06:55:29;98205.99;;;1.53;32.38
43480;BME280;29067;35.492;-97.520;2023-03-14T06:57:57;98202.54;;;1.61;32.28
43480;BME280;29067;35.492;-97.520;2023-03-14T07:00:25;98205.51;;;1.57;32.32
43480;BME280;29067;35.492;-97.520;2023-03-14T07:02:53;98205.98;;;1.03;33.05
43480;BME280;29067;35.492;-97.520;2023-03-14T07:05:21;98207.68;;;0.72;33.28
43480;BME280;29067;35.492;-97.520;2023-03-14T07:07:49;98209.22;;;1.15;33.14
43480;BME280;29067;35.492;-97.520;2023-03-14T07:10:17;98206.10;;;1.92;32.68
43480;BME280;29067;35.492;-97.520;2023-03-14T07:12:46;98209.29;;;1.32;32.94
43480;BME280;29067;35.492;-97.520;2023-03-14T07:15:14;98203.89;;;1.29;32.87
43480;BME280;29067;35.492;-97.520;2023-03-14T07:17:42;98198.94;;;1.28;33.74
43480;BME280;29067;35.492;-97.520;2023-03-14T07:20:11;98198.80;;;1.19;34.00
43480;BME280;29067;35.492;-97.520;2023-03-14T07:22:39;98193.04;;;1.93;33.79
43480;BME280;29067;35.492;-97.520;2023-03-14T07:25:08;98195.38;;;2.16;33.97
43480;BME280;29067;35.492;-97.520;2023-03-14T07:27:36;98200.17;;;2.68;34.01
43480;BME280;29067;35.492;-97.520;2023-03-14T07:30:05;98202.84;;;1.86;34.16
43480;BME280;29067;35.492;-97.520;2023-03-14T07:32:34;98210.70;;;0.66;35.30
43480;BME280;29067;35.492;-97.520;2023-03-14T07:35:03;98210.92;;;1.84;34.64
43480;BME280;29067;35.492;-97.520;2023-03-14T07:37:31;98214.48;;;2.11;35.06
43480;BME280;29067;35.492;-97.520;2023-03-14T07:39:59;98222.50;;;1.79;34.73
43480;BME280;29067;35.492;-97.520;2023-03-14T07:42:27;98218.85;;;2.55;33.73
43480;BME280;29067;35.492;-97.520;2023-03-14T07:44:55;98218.26;;;1.43;34.10
43480;BME280;29067;35.492;-97.520;2023-03-14T07:47:23;98222.39;;;0.82;35.04
43480;BME280;29067;35.492;-97.520;2023-03-14T07:49:51;98220.53;;;1.45;35.11
43480;BME280;29067;35.492;-97.520;2023-03-14T07:52:19;98217.67;;;1.54;35.80
43480;BME280;29067;35.492;-97.520;2023-03-14T07:54:47;98218.48;;;1.85;35.47
43480;BME280;29067;35.492;-97.520;2023-03-14T07:57:15;98216.57;;;2.55;34.91
43480;BME280;29067;35.492;-97.520;2023-03-14T07:59:43;98218.29;;;2.24;35.52
43480;BME280;29067;35.492;-97.520;2023-03-14T08:02:12;98215.87;;;2.22;35.26
43480;BME280;29067;35.492;-97.520;2023-03-14T08:04:41;98218.67;;;2.63;35.30
43480;BME280;29067;35.492;-97.520;2023-03-14T08:07:09;98215.94;;;2.23;36.00
43480;BME280;29067;35.492;-97.520;2023-03-14T08:09:37;98217.89;;;1.51;36.79
43480;BME280;29067;35.492;-97.520;2023-03-14T08:12:05;98215.37;;;1.77;35.97
43480;BME280;29067;35.492;-97.520;2023-03-14T08:14:34;98218.26;;;1.29;36.33
43480;BME280;29067;35.492;-97.520;2023-03-14T08:17:04;98212.97;;;2.27;35.53
43480;BME280;29067;35.492;-97.520;2023-03-14T08:19:32;98212.04;;;1.83;35.67
43480;BME280;29067;35.492;-97.520;2023-03-14T08:22:00;98220.88;;;1.58;36.69
43480;BME280;29067;35.492;-97.520;2023-03-14T08:24:28;98211.80;;;1.13;36.40
43480;BME280;29067;35.492;-97.520;2023-03-14T08:26:56;98215.44;;;1.11;36.81
43480;BME280;29067;35.492;-97.520;2023-03-14T08:29:24;98212.28;;;0.58;37.23
43480;BME280;29067;35.492;-97.520;2023-03-14T08:31:52;98209.14;;;0.63;37.10
43480;BME280;29067;35.492;-97.520;2023-03-14T08:34:21;98207.31;;;0.11;38.02
43480;BME280;29067;35.492;-97.520;2023-03-14T08:36:48;98200.91;;;-0.91;39.08
43480;BME280;29067;35.492;-97.520;2023-03-14T08:39:17;98205.76;;;-0.63;39.26
43480;BME280;29067;35.492;-97.520;2023-03-14T08:41:44;98205.96;;;-0.67;39.46
43480;BME280;29067;35.492;-97.520;2023-03-14T08:44:13;98201.36;;;-0.47;38.93
43480;BME280;29067;35.492;-97.520;2023-03-14T08:46:40;98197.64;;;-0.18;38.58
43480;BME280;29067;35.492;-97.520;2023-03-14T08:49:08;98195.34;;;-0.32;39.49
43480;BME280;29067;35.492;-97.520;2023-03-14T08:51:37;98196.08;;;-2.89;41.30
43480;BME280;29067;35.492;-97.520;2023-03-14T08:54:05;98189.23;;;-1.64;41.23
43480;BME280;29067;35.492;-97.520;2023-03-14T08:56:33;98184.49;;;-0.95;40.82
43480;BME280;29067;35.492;-97.520;2023-03-14T08:59:00;98184.36;;;-0.43;41.08
43480;BME280;29067;35.492;-97.520;2023-03-14T09:01:28;98184.39;;;-1.01;41.05
43480;BME280;29067;35.492;-97.520;2023-03-14T09:03:57;98190.10;;;-1.44;41.92
43480;BME280;29067;35.492;-97.520;2023-03-14T09:06:24;98196.06;;;-1.34;42.43
43480;BME280;29067;35.492;-97.520;2023-03-14T09:08:52;98191.82;;;-1.59;42.71
43480;BME280;29067;35.492;-97.520;2023-03-14T09:11:20;98193.19;;;-1.49;43.73
43480;BME280;29067;35.492;-97.520;2023-03-14T09:13:49;98191.30;;;-1.15;43.13
43480;BME280;29067;35.492;-97.520;2023-03-14T09:16:17;98189.89;;;-1.38;43.53
43480;BME280;29067;35.492;-97.520;2023-03-14T09:18:45;98190.76;;;-1.58;44.06
43480;BME280;29067;35.492;-97.520;2023-03-14T09:21:13;98190.76;;;-0.96;43.46
43480;BME280;29067;35.492;-97.520;2023-03-14T09:23:42;98196.85;;;-0.95;44.35
43480;BME280;29067;35.492;-97.520;2023-03-14T09:26:09;98196.26;;;-2.03;44.74
43480;BME280;29067;35.492;-97.520;2023-03-14T09:28:38;98197.90;;;-2.34;45.57
43480;BME280;29067;35.492;-97.520;2023-03-14T09:31:07;98199.09;;;-1.52;45.38
43480;BME280;29067;35.492;-97.520;2023-03-14T09:33:35;98196.00;;;-0.94;44.10
43480;BME280;29067;35.492;-97.520;2023-03-14T09:36:04;98201.18;;;-1.39;45.19
43480;BME280;29067;35.492;-97.520;2023-03-14T09:38:33;98205.02;;;-1.70;45.27
43480;BME280;29067;35.492;-97.520;2023-03-14T09:41:03;98203.74;;;-2.30;45.97
43480;BME280;29067;35.492;-97.520;2023-03-14T09:43:41;98198.75;;;-2.17;45.76
43480;BME280;29067;35.492;-97.520;2023-03-14T09:46:10;98198.81;;;-2.19;46.37
43480;BME280;29067;35.492;-97.520;2023-03-14T09:48:38;98200.90;;;-1.20;45.24
43480;BME280;29067;35.492;-97.520;2023-03-14T09:51:13;98204.76;;;-1.46;45.04
43480;BME280;29067;35.492;-97.520;2023-03-14T09:53:44;98202.74;;;-1.23;44.77
43480;BME280;29067;35.492;-97.520;2023-03-14T09:56:16;98203.20;;;-3.21;46.89
43480;BME280;29067;35.492;-97.520;2023-03-14T09:58:50;98204.65;;;-1.90;45.81
43480;BME280;29067;35.492;-97.520;2023-03-14T10:01:24;98203.34;;;-1.31;45.12
43480;BME280;29067;35.492;-97.520;2023-03-14T10:03:55;98200.42;;;-1.70;45.10
43480;BME280;29067;35.492;-97.520;2023-03-14T10:06:26;98202.55;;;-1.73;45.80
43480;BME280;29067;35.492;-97.520;2023-03-14T10:08:55;98194.38;;;-2.59;47.24
43480;BME280;29067;35.492;-97.520;2023-03-14T10:11:24;98192.03;;;-2.70;46.87
43480;BME280;29067;35.492;-97.520;2023-03-14T10:14:05;98194.18;;;-2.92;47.38
43480;BME280;29067;35.492;-97.520;2023-03-14T10:16:36;98193.32;;;-1.87;46.20
43480;BME280;29067;35.492;-97.520;2023-03-14T10:19:06;98194.24;;;-2.01;46.91
43480;BME280;29067;35.492;-97.520;2023-03-14T10:21:39;98195.57;;;-2.88;47.73
43480;BME280;29067;35.492;-97.520;2023-03-14T10:24:10;98194.37;;;-3.01;48.12
43480;BME280;29067;35.492;-97.520;2023-03-14T10:26:44;98197.77;;;-3.25;49.09
43480;BME280;29067;35.492;-97.520;2023-03-14T10:29:14;98196.69;;;-2.10;47.94
43480;BME280;29067;35.492;-97.520;2023-03-14T10:31:50;98199.54;;;-1.54;47.45
43480;BME280;29067;35.492;-97.520;2023-03-14T10:34:23;98198.86;;;-2.49;47.93
43480;BME280;29067;35.492;-97.520;2023-03-14T10:36:54;98199.54;;;-2.36;47.85
43480;BME280;29067;35.492;-97.520;2023-03-14T10:39:28;98199.40;;;-3.19;48.10
43480;BME280;29067;35.492;-97.520;2023-03-14T10:42:06;98194.97;;;-1.67;46.79
43480;BME280;29067;35.492;-97.520;2023-03-14T10:44:40;98195.73;;;-1.11;45.73
43480;BME280;29067;35.492;-97.520;2023-03-14T10:47:17;98190.86;;;-0.69;45.32
43480;BME280;29067;35.492;-97.520;2023-03-14T10:49:46;98187.68;;;-1.90;45.88
43480;BME280;29067;35.492;-97.520;2023-03-14T10:52:18;98184.48;;;-2.60;46.51
43480;BME280;29067;35.492;-97.520;2023-03-14T10:54:49;98181.49;;;-2.91;47.88
43480;BME280;29067;35.492;-97.520;2023-03-14T10:57:21;98178.31;;;-1.42;46.48
43480;BME280;29067;35.492;-97.520;2023-03-14T10:59:49;98180.78;;;-2.63;47.53
43480;BME280;29067;35.492;-97.520;2023-03-14T11:02:42;98180.17;;;-2.55;48.53
43480;BME280;29067;35.492;-97.520;2023-03-14T11:05:23;98177.26;;;-2.24;47.09
43480;BME280;29067;35.492;-97.520;2023-03-14T11:07:56;98187.82;;;-2.71;48.58
43480;BME280;29067;35.492;-97.520;2023-03-14T11:10:29;98189.50;;;-2.94;48.76
43480;BME280;29067;35.492;-97.520;2023-03-14T11:13:08;98181.83;;;-2.65;47.84
43480;BME280;29067;35.492;-97.520;2023-03-14T11:15:47;98184.50;;;-2.13;47.55
43480;BME280;29067;35.492;-97.520;2023-03-14T11:18:33;98188.55;;;-1.95;47.29
43480;BME280;29067;35.492;-97.520;2023-03-14T11:21:11;98205.54;;;-3.66;48.98
43480;BME280;29067;35.492;-97.520;2023-03-14T11:23:51;98207.59;;;-2.32;46.86
43480;BME280;29067;35.492;-97.520;2023-03-14T11:26:28;98214.61;;;-1.54;46.05
43480;BME280;29067;35.492;-97.520;2023-03-14T11:29:12;98221.33;;;-1.77;46.30
43480;BME280;29067;35.492;-97.520;2023-03-14T11:31:45;98225.72;;;-2.36;46.28
43480;BME280;29067;35.492;-97.520;2023-03-14T11:34:17;98237.26;;;-2.96;46.89
43480;BME280;29067;35.492;-97.520;2023-03-14T11:36:53;98244.60;;;-1.41;45.58
43480;BME280;29067;35.492;-97.520;2023-03-14T11:39:25;98251.77;;;-2.03;45.53
43480;BME280;29067;35.492;-97.520;2023-03-14T11:41:57;98257.51;;;-2.48;46.40
43480;BME280;29067;35.492;-97.520;2023-03-14T11:44:29;98259.23;;;-2.29;45.12
43480;BME280;29067;35.492;-97.520;2023-03-14T11:47:04;98256.64;;;-0.86;44.55
43480;BME280;29067;35.492;-97.520;2023-03-14T11:49:38;98255.40;;;-0.64;44.16
43480;BME280;29067;35.492;-97.520;2023-03-14T11:52:11;98256.38;;;-0.96;43.51
43480;BME280;29067;35.492;-97.520;2023-03-14T11:54:44;98262.37;;;-1.14;43.50
43480;BME280;29067;35.492;-97.520;2023-03-14T11:57:16;98266.33;;;-1.02;43.26
43480;BME280;29067;35.492;-97.520;2023-03-14T11:59:50;98271.14;;;0.22;42.18
43480;BME280;29067;35.492;-97.520;2023-03-14T12:03:09;98275.38;;;-0.38;42.12
43480;BME280;29067;35.492;-97.520;2023-03-14T12:05:46;98278.54;;;-1.30;43.05
43480;BME280;29067;35.492;-97.520;2023-03-14T12:08:39;98281.55;;;-1.68;44.09
43480;BME280;29067;35.492;-97.520;2023-03-14T12:11:14;98283.86;;;-1.13;43.73
43480;BME280;29067;35.492;-97.520;2023-03-14T12:13:49;98292.28;;;-1.06;43.46
43480;BME280;29067;35.492;-97.520;2023-03-14T12:16:32;98290.09;;;-1.29;44.49
43480;BME280;29067;35.492;-97.520;2023-03-14T12:19:36;98282.57;;;-1.57;44.64
43480;BME280;29067;35.492;-97.520;2023-03-14T12:22:29;98279.89;;;-1.99;44.85
43480;BME280;29067;35.492;-97.520;2023-03-14T12:25:02;98280.73;;;-1.77;45.93
43480;BME280;29067;35.492;-97.520;2023-03-14T12:28:05;98289.15;;;-1.51;45.55
43480;BME280;29067;35.492;-97.520;2023-03-14T12:30:43;98296.44;;;-1.49;44.97
43480;BME280;29067;35.492;-97.520;2023-03-14T12:33:27;98304.49;;;-1.61;45.68
43480;BME280;29067;35.492;-97.520;2023-03-14T12:36:03;98309.65;;;-1.55;45.41
43480;BME280;29067;35.492;-97.520;2023-03-14T12:38:51;98310.59;;;-2.37;47.27
43480;BME280;29067;35.492;-97.520;2023-03-14T12:41:24;98308.69;;;-1.30;45.84
43480;BME280;29067;35.492;-97.520;2023-03-14T12:43:53;98310.67;;;-2.47;46.14
43480;BME280;29067;35.492;-97.520;2023-03-14T12:46:25;98310.83;;;-2.27;46.35
43480;BME280;29067;35.492;-97.520;2023-03-14T12:49:03;98314.56;;;-2.32;47.36
43480;BME280;29067;35.492;-97.520;2023-03-14T12:51:36;98309.51;;;-2.30;46.69
43480;BME280;29067;35.492;-97.520;2023-03-14T12:54:19;98306.96;;;-2.41;47.81
43480;BME280;29067;35.492;-97.520;2023-03-14T12:56:58;98312.32;;;-3.24;48.85
43480;BME280;29067;35.492;-97.520;2023-03-14T12:59:33;98316.36;;;-2.96;49.47
43480;BME280;29067;35.492;-97.520;2023-03-14T13:02:21;98322.80;;;-2.78;49.08
43480;BME280;29067;35.492;-97.520;2023-03-14T13:04:53;98328.79;;;-2.59;48.46